createdAt,value
2014-07-08T05:25:08.985Z,100533
2014-07-08T05:25:27.204Z,100530
2014-07-08T05:25:45.438Z,100521
2014-07-08T05:26:03.157Z,100515
2014-07-08T05:26:21.378Z,100538
2014-07-08T05:26:38.346Z,100527
2014-07-08T05:26:55.940Z,100523
2014-07-08T05:27:14.286Z,100529
2014-07-08T05:27:32.645Z,100523
2014-07-08T05:27:50.880Z,100529
2014-07-08T05:28:09.098Z,100531
2014-07-08T05:28:27.460Z,100514
2014-07-08T05:28:45.678Z,100523
2014-07-08T05:29:04.038Z,100517
2014-07-08T05:29:22.260Z,100520
2014-07-08T05:29:40.603Z,100525
2014-07-08T05:29:58.197Z,100531
2014-07-08T05:30:15.791Z,100522
2014-07-08T05:30:34.011Z,100525
2014-07-08T05:30:50.995Z,100517
2014-07-08T05:31:08.604Z,100528
2014-07-08T05:31:26.200Z,100525
2014-07-08T05:31:44.403Z,100520
2014-07-08T05:32:02.638Z,100520
2014-07-08T05:32:20.231Z,100514
2014-07-08T05:32:37.952Z,100522
2014-07-08T05:32:55.561Z,100508
2014-07-08T05:33:13.155Z,100517
2014-07-08T05:33:31.517Z,100520
2014-07-08T05:33:49.735Z,100511
2014-07-08T05:34:07.954Z,100514
2014-07-08T05:34:25.548Z,100523
2014-07-08T05:34:43.144Z,100514
2014-07-08T05:34:59.472Z,100522
2014-07-08T05:35:17.831Z,100517
2014-07-08T05:35:36.075Z,100514
2014-07-08T05:35:54.419Z,100511
2014-07-08T05:36:12.154Z,100505
2014-07-08T05:36:29.747Z,100511
2014-07-08T05:36:47.385Z,100520
2014-07-08T05:37:05.604Z,100508
2014-07-08T05:37:23.198Z,100508
2014-07-08T05:37:41.462Z,100502
2014-07-08T05:37:59.822Z,100508
2014-07-08T05:38:18.056Z,100508
2014-07-08T05:38:36.275Z,100511
2014-07-08T05:38:54.053Z,100508
2014-07-08T05:39:12.272Z,100508
2014-07-08T05:39:30.491Z,100508
2014-07-08T05:39:49.008Z,100508
2014-07-08T05:40:07.243Z,100508
2014-07-08T05:40:25.462Z,100519
2014-07-08T05:40:43.087Z,100511
2014-07-08T05:41:01.353Z,100508
2014-07-08T05:41:18.947Z,100514
2014-07-08T05:41:37.165Z,100508
2014-07-08T05:41:55.419Z,100505
2014-07-08T05:42:13.778Z,100505
2014-07-08T05:42:31.997Z,100499
2014-07-08T05:42:50.216Z,100505
2014-07-08T05:43:08.452Z,100514
2014-07-08T05:43:26.046Z,100499
2014-07-08T05:43:44.281Z,100508
2014-07-08T05:44:02.517Z,100508
2014-07-08T05:44:20.111Z,100505
2014-07-08T05:44:38.470Z,100505
2014-07-08T05:44:56.689Z,100511
2014-07-08T05:45:14.301Z,100502
2014-07-08T05:45:32.535Z,100499
2014-07-08T05:45:50.770Z,100490
2014-07-08T05:46:09.124Z,100493
2014-07-08T05:46:27.359Z,100485
2014-07-08T05:46:45.578Z,100491
2014-07-08T05:47:03.812Z,100496
2014-07-08T05:47:21.413Z,100485
2014-07-08T05:47:39.631Z,100474
2014-07-08T05:47:57.866Z,100485
2014-07-08T05:48:16.233Z,100485
2014-07-08T05:48:33.186Z,100482
2014-07-08T05:48:51.421Z,100476
2014-07-08T05:49:09.639Z,100476
2014-07-08T05:49:27.865Z,100477
2014-07-08T05:49:46.225Z,100472
2014-07-08T05:50:04.459Z,100466
2014-07-08T05:50:22.687Z,100469
2014-07-08T05:50:40.905Z,100469
2014-07-08T05:50:59.265Z,100477
2014-07-08T05:51:16.234Z,100466
2014-07-08T05:51:33.830Z,100477
2014-07-08T05:51:52.049Z,100480
2014-07-08T05:52:10.268Z,100480
2014-07-08T05:52:28.007Z,100466
2014-07-08T05:52:46.226Z,100469
2014-07-08T05:53:04.460Z,100469
2014-07-08T05:53:22.054Z,100475
2014-07-08T05:53:39.651Z,100472
2014-07-08T05:53:57.245Z,100480
2014-07-08T05:54:15.463Z,100464
2014-07-08T05:54:33.686Z,100475
2014-07-08T05:54:51.920Z,100470
2014-07-08T05:55:10.155Z,100470
2014-07-08T05:55:27.124Z,100470
2014-07-08T05:55:44.721Z,100470
2014-07-08T05:56:03.081Z,100467
2014-07-08T05:56:20.674Z,100472
2014-07-08T05:56:38.271Z,100467
2014-07-08T05:56:56.506Z,100475
2014-07-08T05:57:14.724Z,100467
2014-07-08T05:57:32.943Z,100472
2014-07-08T05:57:51.180Z,100477
2014-07-08T05:58:08.774Z,100477
2014-07-08T05:58:27.134Z,100470
2014-07-08T05:58:44.855Z,100477
2014-07-08T05:59:03.090Z,100477
2014-07-08T05:59:20.683Z,100480
2014-07-08T05:59:38.277Z,100483
2014-07-08T05:59:56.515Z,100473
2014-07-08T06:00:14.874Z,100473
2014-07-08T06:00:33.218Z,100470
2014-07-08T06:00:51.454Z,100470
2014-07-08T06:01:09.048Z,100458
2014-07-08T06:01:27.267Z,100461
2014-07-08T06:01:45.501Z,100461
2014-07-08T06:02:03.862Z,100467
2014-07-08T06:02:22.081Z,100467
2014-07-08T06:02:40.300Z,100467
2014-07-08T06:02:58.521Z,100470
2014-07-08T06:03:16.755Z,100467
2014-07-08T06:03:34.974Z,100473
2014-07-08T06:03:53.208Z,100476
2014-07-08T06:04:10.929Z,100480
2014-07-08T06:04:29.148Z,100489
2014-07-08T06:04:47.382Z,100489
2014-07-08T06:05:05.744Z,100498
2014-07-08T06:05:23.338Z,100503
2014-07-08T06:05:40.932Z,100501
2014-07-08T06:05:57.901Z,100509
2014-07-08T06:06:16.214Z,100495
2014-07-08T06:06:34.605Z,100506
2014-07-08T06:06:52.339Z,100509
2014-07-08T06:07:10.076Z,100506
2014-07-08T06:07:28.295Z,100503
2014-07-08T06:07:46.514Z,100509
2014-07-08T06:08:04.108Z,100512
2014-07-08T06:08:20.577Z,100501
2014-07-08T06:08:38.812Z,100512
2014-07-08T06:08:57.031Z,100512
2014-07-08T06:09:15.267Z,100495
2014-07-08T06:09:33.001Z,100512
2014-07-08T06:09:51.220Z,100503
2014-07-08T06:10:08.814Z,100501
2014-07-08T06:10:25.785Z,100503
2014-07-08T06:10:42.753Z,100501
2014-07-08T06:11:00.988Z,100504
2014-07-08T06:11:18.584Z,100498
2014-07-08T06:11:36.803Z,100512
2014-07-08T06:11:54.397Z,100495
2014-07-08T06:12:11.991Z,100504
2014-07-08T06:12:29.585Z,100504
2014-07-08T06:12:47.820Z,100498
2014-07-08T06:13:05.414Z,100515
2014-07-08T06:13:23.635Z,100509
2014-07-08T06:13:41.870Z,100527
2014-07-08T06:14:00.073Z,100530
2014-07-08T06:14:18.307Z,100518
2014-07-08T06:14:36.527Z,100521
2014-07-08T06:14:54.261Z,100527
2014-07-08T06:15:12.480Z,100530
2014-07-08T06:15:30.077Z,100538
2014-07-08T06:15:47.671Z,100532
2014-07-08T06:16:05.889Z,100527
2014-07-08T06:16:23.483Z,100527
2014-07-08T06:16:41.704Z,100527
2014-07-08T06:16:59.313Z,100527
2014-07-08T06:17:17.516Z,100524
2014-07-08T06:17:35.752Z,100509
2014-07-08T06:17:52.720Z,100521
2014-07-08T06:18:10.939Z,100518
2014-07-08T06:18:28.533Z,100515
2014-07-08T06:18:46.754Z,100495
2014-07-08T06:19:04.347Z,100515
2014-07-08T06:19:22.582Z,100501
2014-07-08T06:19:40.943Z,100489
2014-07-08T06:19:58.537Z,100498
2014-07-08T06:20:16.131Z,100495
2014-07-08T06:20:34.349Z,100473
2014-07-08T06:20:52.711Z,100473
2014-07-08T06:21:10.930Z,100476
2014-07-08T06:21:29.148Z,100476
2014-07-08T06:21:46.103Z,100470
2014-07-08T06:22:03.697Z,100476
2014-07-08T06:22:21.932Z,100478
2014-07-08T06:22:40.150Z,100486
2014-07-08T06:22:57.105Z,100483
2014-07-08T06:23:14.840Z,100478
2014-07-08T06:23:33.074Z,100480
2014-07-08T06:23:51.295Z,100483
2014-07-08T06:24:09.514Z,100486
2014-07-08T06:24:27.732Z,100483
2014-07-08T06:24:45.951Z,100480
2014-07-08T06:25:04.313Z,100486
2014-07-08T06:25:22.531Z,100486
2014-07-08T06:25:40.750Z,100486
2014-07-08T06:25:58.972Z,100483
2014-07-08T06:26:17.331Z,100486
2014-07-08T06:26:35.550Z,100501
2014-07-08T06:26:53.769Z,100498
2014-07-08T06:27:11.364Z,100486
2014-07-08T06:27:28.958Z,100489
2014-07-08T06:27:47.193Z,100498
2014-07-08T06:28:05.412Z,100492
2014-07-08T06:28:23.631Z,100492
2014-07-08T06:28:41.850Z,100489
2014-07-08T06:28:59.444Z,100492
2014-07-08T06:29:16.415Z,100504
2014-07-08T06:29:34.634Z,100506
2014-07-08T06:29:52.228Z,100506
2014-07-08T06:30:09.964Z,100501
2014-07-08T06:30:27.542Z,100518
2014-07-08T06:30:44.652Z,100504
2014-07-08T06:31:02.870Z,100498
2014-07-08T06:31:21.090Z,100501
2014-07-08T06:31:39.325Z,100498
2014-07-08T06:31:57.543Z,100495
2014-07-08T06:32:15.764Z,100478
2014-07-08T06:32:33.358Z,100495
2014-07-08T06:32:51.717Z,100492
2014-07-08T06:33:09.936Z,100483
2014-07-08T06:33:27.533Z,100489
2014-07-08T06:33:45.767Z,100492
2014-07-08T06:34:02.736Z,100483
2014-07-08T06:34:19.707Z,100478
2014-07-08T06:34:38.050Z,100476
2014-07-08T06:34:56.269Z,100483
2014-07-08T06:35:14.488Z,100483
2014-07-08T06:35:32.223Z,100476
2014-07-08T06:35:49.817Z,100476
2014-07-08T06:36:08.036Z,100478
2014-07-08T06:36:25.631Z,100478
2014-07-08T06:36:43.366Z,100476
2014-07-08T06:37:01.585Z,100478
2014-07-08T06:37:19.803Z,100470
2014-07-08T06:37:37.400Z,100473
2014-07-08T06:37:54.509Z,100476
2014-07-08T06:38:12.869Z,100470
2014-07-08T06:38:30.465Z,100476
2014-07-08T06:38:48.043Z,100476
2014-07-08T06:39:05.636Z,100476
2014-07-08T06:39:23.230Z,100476
2014-07-08T06:39:40.826Z,100478
2014-07-08T06:39:59.045Z,100476
2014-07-08T06:40:17.404Z,100486
2014-07-08T06:40:35.623Z,100486
2014-07-08T06:40:53.218Z,100486
2014-07-08T06:41:10.936Z,100483
2014-07-08T06:41:28.671Z,100492
2014-07-08T06:41:46.267Z,100492
2014-07-08T06:42:03.861Z,100483
2014-07-08T06:42:21.455Z,100492
2014-07-08T06:42:39.049Z,100495
2014-07-08T06:42:56.019Z,100492
2014-07-08T06:43:13.629Z,100489
2014-07-08T06:43:30.598Z,100492
2014-07-08T06:43:48.191Z,100489
2014-07-08T06:44:05.787Z,100489
2014-07-08T06:44:24.006Z,100486
2014-07-08T06:44:40.975Z,100489
2014-07-08T06:44:58.568Z,100483
2014-07-08T06:45:15.680Z,100483
2014-07-08T06:45:33.898Z,100492
2014-07-08T06:45:52.258Z,100483
2014-07-08T06:46:09.992Z,100495
2014-07-08T06:46:27.589Z,100473
2014-07-08T06:46:45.948Z,100483
2014-07-08T06:47:04.167Z,100481
2014-07-08T06:47:22.403Z,100476
2014-07-08T06:47:39.997Z,100489
2014-07-08T06:47:58.216Z,100486
2014-07-08T06:48:16.450Z,100484
2014-07-08T06:48:34.671Z,100476
2014-07-08T06:48:52.405Z,100473
2014-07-08T06:49:10.140Z,100473
2014-07-08T06:49:28.361Z,100467
2014-07-08T06:49:46.720Z,100467
2014-07-08T06:50:04.314Z,100467
2014-07-08T06:50:22.532Z,100464
2014-07-08T06:50:40.753Z,100458
2014-07-08T06:50:58.988Z,100452
2014-07-08T06:51:17.206Z,100449
2014-07-08T06:51:35.426Z,100446
2014-07-08T06:51:53.645Z,100449
2014-07-08T06:52:12.004Z,100440
2014-07-08T06:52:29.551Z,100440
2014-07-08T06:52:47.773Z,100429
2014-07-08T06:53:05.367Z,100437
2014-07-08T06:53:22.335Z,100426
2014-07-08T06:53:39.930Z,100423
2014-07-08T06:53:58.164Z,100431
2014-07-08T06:54:16.524Z,100426
2014-07-08T06:54:34.743Z,100428
2014-07-08T06:54:52.339Z,100423
2014-07-08T06:55:10.558Z,100431
2014-07-08T06:55:28.152Z,100423
2014-07-08T06:55:45.763Z,100420
2014-07-08T06:56:03.357Z,100423
2014-07-08T06:56:21.591Z,100434
2014-07-08T06:56:38.560Z,100428
2014-07-08T06:56:56.280Z,100420
2014-07-08T06:57:14.014Z,100420
2014-07-08T06:57:31.108Z,100431
2014-07-08T06:57:49.345Z,100414
2014-07-08T06:58:07.564Z,100428
2014-07-08T06:58:25.158Z,100428
2014-07-08T06:58:42.252Z,100422
2014-07-08T06:58:59.862Z,100425
2014-07-08T06:59:18.206Z,100431
2014-07-08T06:59:34.549Z,100431
2014-07-08T06:59:52.146Z,100434
2014-07-08T07:00:09.740Z,100437
2014-07-08T07:00:27.334Z,100431
2014-07-08T07:00:45.693Z,100425
2014-07-08T07:01:03.289Z,100428
2014-07-08T07:01:21.508Z,100428
2014-07-08T07:01:39.242Z,100428
2014-07-08T07:01:56.978Z,100425
2014-07-08T07:02:14.572Z,100434
2014-07-08T07:02:32.791Z,100425
2014-07-08T07:02:51.150Z,100431
2014-07-08T07:03:09.371Z,100431
2014-07-08T07:03:26.965Z,100422
2014-07-08T07:03:45.183Z,100431
2014-07-08T07:04:03.403Z,100437
2014-07-08T07:04:20.997Z,100434
2014-07-08T07:04:38.606Z,100423
2014-07-08T07:04:56.200Z,100443
2014-07-08T07:05:14.422Z,100440
2014-07-08T07:05:32.641Z,100440
2014-07-08T07:05:49.609Z,100423
2014-07-08T07:06:07.205Z,100426
2014-07-08T07:06:24.799Z,100432
2014-07-08T07:06:42.393Z,100443
2014-07-08T07:06:59.986Z,100438
2014-07-08T07:07:18.207Z,100432
2014-07-08T07:07:37.363Z,100429
2014-07-08T07:07:55.723Z,100432
2014-07-08T08:14:11.960Z,100265
2014-07-08T08:14:30.163Z,100256
2014-07-08T08:14:47.741Z,100265
2014-07-08T08:15:05.304Z,100250
2014-07-08T08:15:22.885Z,100256
2014-07-08T08:15:40.447Z,100247
2014-07-08T08:15:58.651Z,100256
2014-07-08T08:16:16.230Z,100253
2014-07-08T08:16:33.792Z,100256
2014-07-08T08:16:51.995Z,100265
2014-07-08T08:17:09.573Z,100247
2014-07-08T08:17:27.904Z,100250
2014-07-08T08:17:45.482Z,100259
2014-07-08T08:18:02.419Z,100253
2014-07-08T08:18:19.999Z,100253
2014-07-08T08:18:38.327Z,100259
2014-07-08T08:18:56.531Z,100241
2014-07-08T08:19:14.093Z,100253
2014-07-08T08:19:32.314Z,100253
2014-07-08T08:19:50.517Z,100250
2014-07-08T08:20:08.220Z,100253
2014-07-08T08:20:26.425Z,100244
2014-07-08T08:20:44.628Z,100241
2014-07-08T08:21:02.831Z,100253
2014-07-08T08:21:20.410Z,100253
2014-07-08T08:21:38.115Z,100244
2014-07-08T08:21:56.318Z,100247
2014-07-08T08:22:13.896Z,100253
2014-07-08T08:22:31.601Z,100241
2014-07-08T08:22:49.164Z,100250
2014-07-08T08:23:06.882Z,100236
2014-07-08T08:23:24.585Z,100238
2014-07-08T08:23:42.151Z,100241
2014-07-08T08:24:00.354Z,100256
2014-07-08T08:24:18.557Z,100241
2014-07-08T08:24:36.777Z,100244
2014-07-08T08:24:54.980Z,100253
2014-07-08T08:25:13.324Z,100241
2014-07-08T08:25:31.027Z,100253
2014-07-08T08:25:49.232Z,100241
2014-07-08T08:26:07.560Z,100247
2014-07-08T08:26:25.138Z,100250
2014-07-08T08:26:43.343Z,100236
2014-07-08T08:27:01.531Z,100233
2014-07-08T08:27:19.109Z,100241
2014-07-08T08:27:37.312Z,100233
2014-07-08T08:27:55.017Z,100241
2014-07-08T08:28:12.720Z,100241
2014-07-08T08:28:30.924Z,100233
2014-07-08T08:28:49.130Z,100241
2014-07-08T08:29:07.333Z,100236
2014-07-08T08:29:24.911Z,100233
2014-07-08T08:29:41.223Z,100236
2014-07-08T08:29:59.553Z,100241
2014-07-08T08:30:17.131Z,100233
2014-07-08T08:30:35.318Z,100241
2014-07-08T08:30:53.523Z,100239
2014-07-08T08:31:11.101Z,100241
2014-07-08T08:31:28.680Z,100233
2014-07-08T08:31:46.242Z,100241
2014-07-08T08:32:04.447Z,100239
2014-07-08T08:32:22.025Z,100239
2014-07-08T08:32:39.728Z,100241
2014-07-08T08:32:57.934Z,100236
2014-07-08T08:33:14.871Z,100233
2014-07-08T08:33:31.184Z,100230
2014-07-08T08:33:49.387Z,100224
2014-07-08T08:34:06.968Z,100233
2014-07-08T08:34:24.671Z,100221
2014-07-08T08:34:42.233Z,100218
2014-07-08T08:35:00.577Z,100218
2014-07-08T08:35:18.781Z,100224
2014-07-08T08:35:36.969Z,100221
2014-07-08T08:35:55.313Z,100221
2014-07-08T08:36:13.019Z,100210
2014-07-08T08:36:31.222Z,100227
2014-07-08T08:36:48.800Z,100221
2014-07-08T08:37:06.378Z,100221
2014-07-08T08:37:23.957Z,100221
2014-07-08T08:37:42.160Z,100221
2014-07-08T08:37:59.863Z,100227
2014-07-08T08:38:16.804Z,100230
2014-07-08T08:38:34.523Z,100221
2014-07-08T08:38:52.866Z,100221
2014-07-08T08:39:11.070Z,100218
2014-07-08T08:39:28.150Z,100215
2014-07-08T08:39:46.337Z,100218
2014-07-08T08:40:03.915Z,100224
2014-07-08T08:40:21.510Z,100207
2014-07-08T08:40:39.073Z,100207
2014-07-08T08:40:57.760Z,100215
2014-07-08T08:41:16.088Z,100218
2014-07-08T08:41:34.293Z,100210
2014-07-08T08:41:52.496Z,100210
2014-07-08T08:42:10.700Z,100210
2014-07-08T08:42:27.639Z,100212
2014-07-08T08:42:45.983Z,100207
2014-07-08T08:43:03.561Z,100212
2014-07-08T08:43:21.889Z,100207
2014-07-08T08:43:40.094Z,100215
2014-07-08T08:43:58.297Z,100218
2014-07-08T08:44:15.891Z,100224
2014-07-08T08:44:34.221Z,100206
2014-07-08T08:44:52.581Z,100212
2014-07-08T08:45:10.924Z,100209
2014-07-08T08:45:29.112Z,100206
2014-07-08T08:45:47.317Z,100204
2014-07-08T08:46:04.895Z,100209
2014-07-08T08:46:23.098Z,100204
2014-07-08T08:46:41.303Z,100195
2014-07-08T08:46:58.881Z,100195
2014-07-08T08:47:15.819Z,100201
2014-07-08T08:47:33.413Z,100201
2014-07-08T08:47:51.743Z,100201
2014-07-08T08:48:09.321Z,100198
2014-07-08T08:48:27.524Z,100203
2014-07-08T08:48:45.714Z,100204
2014-07-08T08:49:03.932Z,100201
2014-07-08T08:49:20.885Z,100201
2014-07-08T08:49:39.073Z,100201
2014-07-08T08:49:56.654Z,100192
2014-07-08T08:50:14.857Z,100201
2014-07-08T08:50:33.060Z,100209
2014-07-08T08:50:50.640Z,100198
2014-07-08T08:51:08.203Z,100206
2014-07-08T08:51:26.422Z,100204
2014-07-08T08:51:44.625Z,100198
2014-07-08T08:52:02.189Z,100204
2014-07-08T08:52:19.767Z,100198
2014-07-08T08:52:38.096Z,100195
2014-07-08T08:52:55.801Z,100195
2014-07-08T08:53:13.379Z,100201
2014-07-08T08:53:31.582Z,100198
2014-07-08T08:53:49.910Z,100195
2014-07-08T08:54:08.130Z,100195
2014-07-08T08:54:26.474Z,100192
2014-07-08T08:54:44.177Z,100192
2014-07-08T08:55:02.508Z,100189
2014-07-08T08:55:20.711Z,100192
2014-07-08T08:55:38.289Z,100198
2014-07-08T08:55:56.492Z,100189
2014-07-08T08:56:14.072Z,100195
2014-07-08T08:56:32.275Z,100192
2014-07-08T08:56:49.994Z,100198
2014-07-08T08:57:08.184Z,100183
2014-07-08T08:57:26.387Z,100183
2014-07-08T08:57:44.590Z,100192
2014-07-08T08:58:02.809Z,100192
2014-07-08T08:58:20.373Z,100186
2014-07-08T08:58:37.951Z,100195
2014-07-08T08:58:55.654Z,100189
2014-07-08T08:59:13.999Z,100192
2014-07-08T08:59:32.202Z,100186
2014-07-08T08:59:50.405Z,100186
2014-07-08T09:00:07.968Z,100189
2014-07-08T09:00:26.190Z,100186
2014-07-08T09:00:43.893Z,100186
2014-07-08T09:01:02.080Z,100180
2014-07-08T09:01:19.660Z,100186
2014-07-08T09:01:40.489Z,100186
2014-07-08T09:01:59.973Z,100183
2014-07-08T09:02:17.535Z,100178
2014-07-08T09:02:35.741Z,100189
2014-07-08T09:02:53.959Z,100178
2014-07-08T09:03:12.162Z,100180
2014-07-08T09:03:30.368Z,100183
2014-07-08T09:03:47.946Z,100180
2014-07-08T09:04:05.633Z,100175
2014-07-08T09:04:23.352Z,100192
2014-07-08T09:04:40.932Z,100181
2014-07-08T09:04:58.635Z,100183
2014-07-08T09:05:16.213Z,100181
2014-07-08T09:05:34.434Z,100183
2014-07-08T09:05:51.997Z,100186
2014-07-08T09:06:10.200Z,100181
2014-07-08T09:06:28.403Z,100163
2014-07-08T09:06:45.983Z,100181
2014-07-08T09:07:04.186Z,100175
2014-07-08T09:07:21.889Z,100172
2014-07-08T09:07:40.204Z,100181
2014-07-08T09:07:57.985Z,100178
2014-07-08T09:08:16.172Z,100175
2014-07-08T09:08:34.376Z,100184
2014-07-08T09:08:53.284Z,100184
2014-07-08T09:09:10.768Z,100186
2014-07-08T09:09:28.971Z,100178
2014-07-08T09:09:46.551Z,100175
2014-07-08T09:10:04.739Z,100163
2014-07-08T09:10:22.911Z,100175
2014-07-08T09:10:41.520Z,100175
2014-07-08T09:10:59.100Z,100172
2014-07-08T09:11:16.663Z,100172
2014-07-08T09:11:34.241Z,100178
2014-07-08T09:11:52.587Z,100181
2014-07-08T09:12:10.774Z,100169
2014-07-08T09:12:28.977Z,100163
2014-07-08T09:12:47.321Z,100166
2014-07-08T09:13:05.026Z,100175
2014-07-08T09:13:23.229Z,100169
2014-07-08T09:13:40.807Z,100166
2014-07-08T09:13:59.013Z,100166
2014-07-08T09:14:17.216Z,100172
2014-07-08T09:14:34.794Z,100175
2014-07-08T09:14:52.981Z,100169
2014-07-08T09:15:11.186Z,100163
2014-07-08T09:15:29.530Z,100169
2014-07-08T09:15:47.733Z,100172
2014-07-08T09:16:05.298Z,100172
2014-07-08T09:16:22.876Z,100178
2014-07-08T09:16:39.954Z,100166
2014-07-08T09:16:57.532Z,100161
2014-07-08T09:17:15.862Z,100161
2014-07-08T09:17:32.940Z,100166
2014-07-08T09:17:50.519Z,100163
2014-07-08T09:18:08.724Z,100169
2014-07-08T09:18:26.911Z,100161
2014-07-08T09:18:44.505Z,100161
2014-07-08T09:19:02.067Z,100166
2014-07-08T09:19:19.632Z,100169
2014-07-08T09:19:37.835Z,100161
2014-07-08T09:19:55.413Z,100161
2014-07-08T09:20:13.134Z,100158
2014-07-08T09:20:30.696Z,100155
2014-07-08T09:20:48.400Z,100152
2014-07-08T09:21:06.618Z,100166
2014-07-08T09:21:24.808Z,100163
2014-07-08T09:21:43.152Z,100161
2014-07-08T09:22:01.480Z,100169
2014-07-08T09:22:19.685Z,100155
2014-07-08T09:22:37.263Z,100158
2014-07-08T09:22:54.825Z,100155
2014-07-08T09:23:12.404Z,100163
2014-07-08T09:23:29.968Z,100155
2014-07-08T09:23:48.171Z,100152
2014-07-08T09:24:05.734Z,100152
2014-07-08T09:24:23.939Z,100155
2014-07-08T09:24:42.142Z,100149
2014-07-08T09:24:59.720Z,100155
2014-07-08T09:25:17.298Z,100147
2014-07-08T09:25:34.863Z,100161
2014-07-08T09:25:52.441Z,100149
2014-07-08T09:26:10.269Z,100152
2014-07-08T09:26:27.974Z,100164
2014-07-08T09:26:45.693Z,100152
2014-07-08T09:27:03.880Z,100149
2014-07-08T09:27:21.474Z,100158
2014-07-08T09:27:38.414Z,100152
2014-07-08T09:27:56.117Z,100152
2014-07-08T09:28:14.335Z,100152
2014-07-08T09:28:32.541Z,100155
2014-07-08T09:28:50.119Z,100147
2014-07-08T09:29:08.306Z,100149
2014-07-08T09:29:26.025Z,100141
2014-07-08T09:29:44.230Z,100152
2014-07-08T09:30:02.433Z,100147
2014-07-08T09:30:20.011Z,100161
2014-07-08T09:30:38.201Z,100149
2014-07-08T09:30:55.279Z,100144
2014-07-08T09:31:13.623Z,100152
2014-07-08T09:31:31.201Z,100164
2014-07-08T09:31:48.765Z,100141
2014-07-08T09:32:05.718Z,100152
2014-07-08T09:32:23.297Z,100141
2014-07-08T09:32:41.486Z,100144
2014-07-08T09:32:59.752Z,100152
2014-07-08T09:33:17.314Z,100149
2014-07-08T09:33:34.892Z,100155
2014-07-08T09:33:53.222Z,100144
2014-07-08T09:34:11.426Z,100152
2014-07-08T09:34:29.629Z,100158
2014-07-08T09:34:47.818Z,100147
2014-07-08T09:35:05.412Z,100147
2014-07-08T09:35:22.974Z,100149
2014-07-08T09:35:40.553Z,100149
2014-07-08T09:35:58.758Z,100144
2014-07-08T09:36:16.961Z,100141
2014-07-08T09:36:33.914Z,100149
2014-07-08T09:36:51.619Z,100138
2014-07-08T09:37:09.197Z,100155
2014-07-08T09:37:27.385Z,100147
2014-07-08T09:37:45.103Z,100152
2014-07-08T09:38:02.684Z,100149
2014-07-08T09:38:20.871Z,100155
2014-07-08T09:38:39.059Z,100147
2014-07-08T09:38:56.639Z,100147
2014-07-08T09:39:14.217Z,100149
2014-07-08T09:39:31.154Z,100138
2014-07-08T09:39:49.357Z,100149
2014-07-08T09:40:06.922Z,100147
2014-07-08T09:40:25.125Z,100152
2014-07-08T09:40:43.328Z,100141
2014-07-08T09:41:01.658Z,100136
2014-07-08T09:41:19.361Z,100136
2014-07-08T09:41:59.252Z,100141
2014-07-08T09:42:16.817Z,100141
2014-07-08T09:42:34.395Z,100138
2014-07-08T09:42:51.957Z,100147
2014-07-08T09:43:09.537Z,100141
2014-07-08T09:43:27.115Z,100147
2014-07-08T09:43:44.178Z,100144
2014-07-08T09:44:01.131Z,100144
2014-07-08T09:44:18.836Z,100138
2014-07-08T09:44:37.039Z,100147
2014-07-08T09:44:54.742Z,100147
2014-07-08T09:45:12.946Z,100141
2014-07-08T09:45:31.152Z,100136
2014-07-08T09:45:48.714Z,100144
2014-07-08T09:46:06.292Z,100144
2014-07-08T09:46:23.872Z,100147
2014-07-08T09:46:40.794Z,100141
2014-07-08T09:46:58.513Z,100144
2014-07-08T09:47:16.076Z,100138
2014-07-08T09:47:33.655Z,100138
2014-07-08T09:47:51.858Z,100147
2014-07-08T09:48:09.436Z,100141
2014-07-08T09:48:27.016Z,100141
2014-07-08T09:48:43.969Z,100130
2014-07-08T09:49:01.532Z,100133
2014-07-08T09:49:19.110Z,100141
2014-07-08T09:49:36.691Z,100127
2014-07-08T09:49:55.035Z,100136
2014-07-08T09:50:13.222Z,100124
2014-07-08T09:50:31.425Z,100124
2014-07-08T09:50:49.130Z,100138
2014-07-08T09:51:07.334Z,100141
2014-07-08T09:51:24.912Z,100124
2014-07-08T09:51:42.617Z,100138
2014-07-08T09:52:00.179Z,100133
2014-07-08T09:52:18.382Z,100127
2014-07-08T09:52:36.586Z,100124
2014-07-08T09:52:54.790Z,100124
2014-07-08T09:53:13.133Z,100133
2014-07-08T09:53:30.837Z,100130
2014-07-08T09:53:49.043Z,100118
2014-07-08T09:54:07.246Z,100118
2014-07-08T09:54:25.449Z,100130
2014-07-08T09:54:44.199Z,100124
2014-07-08T09:55:01.795Z,100127
2014-07-08T09:55:19.357Z,100121
2014-07-08T09:55:36.935Z,100127
2014-07-08T09:55:54.640Z,100124
2014-07-08T09:56:12.234Z,100121
2014-07-08T09:56:29.937Z,100118
2014-07-08T09:56:47.515Z,100121
2014-07-08T09:57:05.080Z,100115
2014-07-08T09:57:23.299Z,100124
2014-07-08T09:57:41.502Z,100107
2014-07-08T09:57:59.064Z,100110
2014-07-08T09:58:17.269Z,100118
2014-07-08T09:58:35.473Z,100110
2014-07-08T09:58:53.676Z,100110
2014-07-08T09:59:10.615Z,100118
2014-07-08T09:59:28.178Z,100110
2014-07-08T09:59:45.756Z,100104
2014-07-08T10:00:03.350Z,100107
2014-07-08T10:00:20.914Z,100104
2014-07-08T10:00:39.117Z,100098
2014-07-08T10:00:56.852Z,100107
2014-07-08T10:01:15.070Z,100112
2014-07-08T10:01:32.775Z,100112
2014-07-08T10:01:49.088Z,100110
2014-07-08T10:02:07.291Z,100110
2014-07-08T10:02:25.481Z,100112
2014-07-08T10:02:43.699Z,100115
2014-07-08T10:03:01.402Z,100124
2014-07-08T10:03:18.481Z,100104
2014-07-08T10:03:36.061Z,100113
2014-07-08T10:03:53.764Z,100104
2014-07-08T10:04:11.467Z,100115
2014-07-08T10:04:29.047Z,100115
2014-07-08T10:04:45.985Z,100107
2014-07-08T10:05:03.563Z,100113
2014-07-08T10:05:21.266Z,100101
2014-07-08T10:05:38.972Z,100113
2014-07-08T10:05:56.534Z,100098
2014-07-08T10:06:14.113Z,100095
2014-07-08T10:06:32.316Z,100104
2014-07-08T10:06:50.520Z,100101
2014-07-08T10:07:08.723Z,100101
2014-07-08T10:07:26.301Z,100107
2014-07-08T10:07:44.491Z,100107
2014-07-08T10:08:02.069Z,100107
2014-07-08T10:08:20.272Z,100107
2014-07-08T10:08:38.475Z,100107
2014-07-08T10:08:56.665Z,100107
2014-07-08T10:09:15.009Z,100107
2014-07-08T10:09:32.572Z,100101
2014-07-08T10:09:50.777Z,100104
2014-07-08T10:10:08.996Z,100095
2014-07-08T10:10:26.558Z,100095
2014-07-08T10:10:44.777Z,100095
2014-07-08T10:11:03.123Z,100101
2014-07-08T10:11:20.060Z,100092
2014-07-08T10:11:37.763Z,100098
2014-07-08T10:11:55.342Z,100092
2014-07-08T10:12:13.045Z,100089
2014-07-08T10:12:30.749Z,100095
2014-07-08T10:12:48.327Z,100089
2014-07-08T10:13:04.017Z,100101
2014-07-08T10:13:22.220Z,100092
2014-07-08T10:13:39.923Z,100095
2014-07-08T10:13:58.127Z,100092
2014-07-08T10:14:15.691Z,100089
2014-07-08T10:14:33.269Z,100092